PWSweather.com
Personal Weather Stations
Station Observations
MENWDWX1
Menstrie, ScotlandGB

MenstrieScotlandGB

Lat: 56.148322, Lon: -3.85483

Elevation: 62

Station Type: Davis Vantage Pro 2

High Low Average
Temperature 61.4°F16.3°C 45.4°F7.4°C 56.3°F13.5°C
Dew Point 54.1°F12.3°C 39.3°F4.1°C 49.1°F9.5°C
Winds 13.8 mph 22.2 kmh Calm Calm 5.0 mph SE8.0 kmh SE
Wind Gusts 19.6 mph31.5 kmh -- 8.0 mph12.9 kmh
Humidity 79% 72% 77%
Pressure 29.63 in1003.4 mb 29.37 in994.6 mb -
Precipitation 0.08 in2.0 mm - -
Hour Temp Dew Point Humidity Winds Wind Gusts Pressure Precip Precip Rate Daily Precip Total
12:00 AM 60.5°F15.8°C 52.2°F11.2°C 74% 5.8 mph ESE9.3 kmh ESE 10.4 mph16.7 kmh 29.63 in1003.4 mb - 0.00 in0.0 mm 0.00 in0.0 mm
12:05 AM 60.4°F15.8°C 52.1°F11.2°C 74% 8.1 mph ESE13.0 kmh ESE 11.5 mph18.5 kmh 29.63 in1003.4 mb - 0.00 in0.0 mm 0.00 in0.0 mm
12:10 AM 60.4°F15.8°C 52.1°F11.2°C 74% 10.4 mph E16.7 kmh E 15.0 mph24.1 kmh 29.62 in1003.0 mb - 0.00 in0.0 mm 0.00 in0.0 mm
12:15 AM 60.7°F15.9°C 52.0°F11.1°C 73% 5.8 mph ESE9.3 kmh ESE 9.2 mph14.8 kmh 29.62 in1003.0 mb - 0.00 in0.0 mm 0.00 in0.0 mm
12:20 AM 60.9°F16.1°C 51.8°F11.0°C 72% 5.8 mph E9.3 kmh E 11.5 mph18.5 kmh 29.62 in1003.0 mb - 0.00 in0.0 mm 0.00 in0.0 mm
12:25 AM 61.0°F16.1°C 51.9°F11.1°C 72% 8.1 mph E13.0 kmh E 11.5 mph18.5 kmh 29.62 in1003.0 mb - 0.00 in0.0 mm 0.00 in0.0 mm
12:30 AM 61.1°F16.2°C 52.0°F11.1°C 72% 5.8 mph ESE9.3 kmh ESE 6.9 mph11.1 kmh 29.61 in1002.7 mb - 0.00 in0.0 mm 0.00 in0.0 mm
12:35 AM 61.0°F16.1°C 51.9°F11.1°C 72% 5.8 mph ESE9.3 kmh ESE 6.9 mph11.1 kmh 29.61 in1002.7 mb - 0.00 in0.0 mm 0.00 in0.0 mm
12:40 AM 60.6°F15.9°C 51.5°F10.8°C 72% 6.9 mph ESE11.1 kmh ESE 10.4 mph16.7 kmh 29.61 in1002.7 mb - 0.00 in0.0 mm 0.00 in0.0 mm
12:45 AM 60.0°F15.6°C 51.3°F10.7°C 73% 5.8 mph E9.3 kmh E 8.1 mph13.0 kmh 29.60 in1002.4 mb - 0.00 in0.0 mm 0.00 in0.0 mm
12:50 AM 59.5°F15.3°C 51.2°F10.7°C 74% 8.1 mph E13.0 kmh E 10.4 mph16.7 kmh 29.60 in1002.4 mb - 0.00 in0.0 mm 0.00 in0.0 mm
12:55 AM 59.2°F15.1°C 50.9°F10.5°C 74% 8.1 mph E13.0 kmh E 10.4 mph16.7 kmh 29.60 in1002.4 mb - 0.00 in0.0 mm 0.00 in0.0 mm
01:00 AM 59.0°F15.0°C 50.7°F10.4°C 74% 6.9 mph E11.1 kmh E 8.1 mph13.0 kmh 29.60 in1002.4 mb - 0.00 in0.0 mm 0.00 in0.0 mm
01:05 AM 58.8°F14.9°C 50.9°F10.5°C 75% 4.6 mph E7.4 kmh E 9.2 mph14.8 kmh 29.60 in1002.4 mb - 0.00 in0.0 mm 0.00 in0.0 mm
01:10 AM 58.6°F14.8°C 50.7°F10.4°C 75% 8.1 mph E13.0 kmh E 11.5 mph18.5 kmh 29.59 in1002.0 mb - 0.00 in0.0 mm 0.00 in0.0 mm
01:15 AM 58.6°F14.8°C 50.7°F10.4°C 75% 9.2 mph E14.8 kmh E 12.7 mph20.4 kmh 29.59 in1002.0 mb - 0.00 in0.0 mm 0.00 in0.0 mm
01:20 AM 58.4°F14.7°C 50.5°F10.3°C 75% 8.1 mph E13.0 kmh E 11.5 mph18.5 kmh 29.59 in1002.0 mb - 0.00 in0.0 mm 0.00 in0.0 mm
01:25 AM 58.4°F14.7°C 50.1°F10.1°C 74% 6.9 mph E11.1 kmh E 11.5 mph18.5 kmh 29.58 in1001.7 mb - 0.00 in0.0 mm 0.00 in0.0 mm
01:30 AM 58.1°F14.5°C 50.3°F10.2°C 75% 6.9 mph ESE11.1 kmh ESE 10.4 mph16.7 kmh 29.58 in1001.7 mb - 0.00 in0.0 mm 0.00 in0.0 mm
01:35 AM 57.7°F14.3°C 49.8°F9.9°C 75% 6.9 mph ESE11.1 kmh ESE 9.2 mph14.8 kmh 29.57 in1001.4 mb - 0.00 in0.0 mm 0.00 in0.0 mm
01:40 AM 57.4°F14.1°C 49.6°F9.8°C 75% 6.9 mph E11.1 kmh E 11.5 mph18.5 kmh 29.57 in1001.4 mb - 0.00 in0.0 mm 0.00 in0.0 mm
01:45 AM 57.3°F14.1°C 49.4°F9.7°C 75% 6.9 mph ESE11.1 kmh ESE 10.4 mph16.7 kmh 29.57 in1001.4 mb - 0.00 in0.0 mm 0.00 in0.0 mm
01:50 AM 57.3°F14.1°C 49.5°F9.7°C 75% 6.9 mph E11.1 kmh E 9.2 mph14.8 kmh 29.56 in1001.0 mb - 0.00 in0.0 mm 0.00 in0.0 mm
01:55 AM 57.2°F14.0°C 49.3°F9.6°C 75% 8.1 mph E13.0 kmh E 15.0 mph24.1 kmh 29.56 in1001.0 mb - 0.00 in0.0 mm 0.00 in0.0 mm
02:00 AM 57.2°F14.0°C 49.3°F9.6°C 75% 6.9 mph E11.1 kmh E 11.5 mph18.5 kmh 29.56 in1001.0 mb - 0.00 in0.0 mm 0.00 in0.0 mm
02:05 AM 57.3°F14.1°C 49.4°F9.7°C 75% 9.2 mph E14.8 kmh E 11.5 mph18.5 kmh 29.55 in1000.7 mb - 0.00 in0.0 mm 0.00 in0.0 mm
02:10 AM 57.8°F14.3°C 49.6°F9.8°C 74% 3.5 mph SE5.6 kmh SE 8.1 mph13.0 kmh 29.55 in1000.7 mb - 0.00 in0.0 mm 0.00 in0.0 mm
02:15 AM 58.0°F14.4°C 49.7°F9.8°C 74% 8.1 mph E13.0 kmh E 12.7 mph20.4 kmh 29.55 in1000.7 mb - 0.00 in0.0 mm 0.00 in0.0 mm
02:20 AM 58.1°F14.5°C 49.5°F9.7°C 73% 10.4 mph E16.7 kmh E 17.3 mph27.8 kmh 29.55 in1000.7 mb - 0.00 in0.0 mm 0.00 in0.0 mm
02:25 AM 58.3°F14.6°C 49.7°F9.8°C 73% 5.8 mph E9.3 kmh E 11.5 mph18.5 kmh 29.55 in1000.7 mb - 0.00 in0.0 mm 0.00 in0.0 mm
02:30 AM 58.1°F14.5°C 49.5°F9.7°C 73% 8.1 mph ESE13.0 kmh ESE 9.2 mph14.8 kmh 29.55 in1000.7 mb - 0.00 in0.0 mm 0.00 in0.0 mm
02:35 AM 57.8°F14.3°C 49.2°F9.6°C 73% 9.2 mph E14.8 kmh E 11.5 mph18.5 kmh 29.55 in1000.7 mb - 0.00 in0.0 mm 0.00 in0.0 mm
02:40 AM 57.5°F14.2°C 49.3°F9.6°C 74% 9.2 mph E14.8 kmh E 15.0 mph24.1 kmh 29.55 in1000.7 mb - 0.00 in0.0 mm 0.00 in0.0 mm
02:45 AM 57.4°F14.1°C 49.2°F9.6°C 74% 6.9 mph E11.1 kmh E 11.5 mph18.5 kmh 29.54 in1000.3 mb - 0.00 in0.0 mm 0.00 in0.0 mm
02:50 AM 57.3°F14.1°C 49.1°F9.5°C 74% 10.4 mph E16.7 kmh E 11.5 mph18.5 kmh 29.54 in1000.3 mb - 0.00 in0.0 mm 0.00 in0.0 mm
02:55 AM 57.4°F14.1°C 49.2°F9.6°C 74% 6.9 mph E11.1 kmh E 11.5 mph18.5 kmh 29.54 in1000.3 mb - 0.00 in0.0 mm 0.00 in0.0 mm
03:00 AM 57.6°F14.2°C 49.4°F9.7°C 74% 5.8 mph ESE9.3 kmh ESE 8.1 mph13.0 kmh 29.54 in1000.3 mb - 0.00 in0.0 mm 0.00 in0.0 mm
03:05 AM 57.4°F14.1°C 49.2°F9.6°C 74% 6.9 mph ESE11.1 kmh ESE 11.5 mph18.5 kmh 29.54 in1000.3 mb - 0.00 in0.0 mm 0.00 in0.0 mm
03:10 AM 57.2°F14.0°C 49.3°F9.6°C 75% 5.8 mph E9.3 kmh E 8.1 mph13.0 kmh 29.54 in1000.3 mb - 0.00 in0.0 mm 0.00 in0.0 mm
03:15 AM 57.0°F13.9°C 49.2°F9.6°C 75% 5.8 mph ESE9.3 kmh ESE 9.2 mph14.8 kmh 29.54 in1000.3 mb - 0.00 in0.0 mm 0.00 in0.0 mm
03:20 AM 56.8°F13.8°C 49.3°F9.6°C 76% 5.8 mph E9.3 kmh E 9.2 mph14.8 kmh 29.54 in1000.3 mb - 0.00 in0.0 mm 0.00 in0.0 mm
03:25 AM 56.7°F13.7°C 49.2°F9.6°C 76% 4.6 mph ESE7.4 kmh ESE 9.2 mph14.8 kmh 29.54 in1000.3 mb - 0.00 in0.0 mm 0.00 in0.0 mm
03:30 AM 56.5°F13.6°C 49.0°F9.4°C 76% 4.6 mph ESE7.4 kmh ESE 11.5 mph18.5 kmh 29.54 in1000.3 mb - 0.00 in0.0 mm 0.00 in0.0 mm
03:35 AM 56.3°F13.5°C 49.2°F9.6°C 77% 6.9 mph E11.1 kmh E 8.1 mph13.0 kmh 29.53 in1000.0 mb - 0.00 in0.0 mm 0.00 in0.0 mm
03:40 AM 56.4°F13.6°C 49.3°F9.6°C 77% 8.1 mph E13.0 kmh E 12.7 mph20.4 kmh 29.52 in999.7 mb - 0.00 in0.0 mm 0.00 in0.0 mm
03:45 AM 56.7°F13.7°C 49.2°F9.6°C 76% 8.1 mph E13.0 kmh E 10.4 mph16.7 kmh 29.52 in999.7 mb - 0.00 in0.0 mm 0.00 in0.0 mm
03:50 AM 56.8°F13.8°C 49.3°F9.6°C 76% 8.1 mph E13.0 kmh E 11.5 mph18.5 kmh 29.51 in999.3 mb - 0.00 in0.0 mm 0.00 in0.0 mm
03:55 AM 56.7°F13.7°C 49.2°F9.6°C 76% 5.8 mph SE9.3 kmh SE 11.5 mph18.5 kmh 29.51 in999.3 mb - 0.00 in0.0 mm 0.00 in0.0 mm
04:00 AM 56.3°F13.5°C 49.2°F9.6°C 77% 8.1 mph ESE13.0 kmh ESE 11.5 mph18.5 kmh 29.51 in999.3 mb - 0.00 in0.0 mm 0.00 in0.0 mm
04:05 AM 55.7°F13.2°C 48.6°F9.2°C 77% 6.9 mph E11.1 kmh E 9.2 mph14.8 kmh 29.50 in999.0 mb - 0.00 in0.0 mm 0.00 in0.0 mm
04:10 AM 55.3°F12.9°C 48.2°F9.0°C 77% 6.9 mph E11.1 kmh E 8.1 mph13.0 kmh 29.50 in999.0 mb - 0.00 in0.0 mm 0.00 in0.0 mm
04:15 AM 55.1°F12.8°C 48.4°F9.1°C 78% 3.5 mph ESE5.6 kmh ESE 8.1 mph13.0 kmh 29.50 in999.0 mb - 0.00 in0.0 mm 0.00 in0.0 mm
04:20 AM 55.3°F12.9°C 48.5°F9.2°C 78% 3.5 mph E5.6 kmh E 3.5 mph5.6 kmh 29.49 in998.6 mb - 0.00 in0.0 mm 0.00 in0.0 mm
04:25 AM 55.5°F13.1°C 48.8°F9.3°C 78% 5.8 mph E9.3 kmh E 9.2 mph14.8 kmh 29.49 in998.6 mb - 0.00 in0.0 mm 0.00 in0.0 mm
04:30 AM 55.6°F13.1°C 48.9°F9.4°C 78% 5.8 mph ESE9.3 kmh ESE 8.1 mph13.0 kmh 29.49 in998.6 mb - 0.00 in0.0 mm 0.00 in0.0 mm
04:35 AM 55.7°F13.2°C 48.9°F9.4°C 78% 6.9 mph E11.1 kmh E 9.2 mph14.8 kmh 29.49 in998.6 mb - 0.00 in0.0 mm 0.00 in0.0 mm
04:40 AM 55.9°F13.3°C 49.1°F9.5°C 78% 3.5 mph E5.6 kmh E 8.1 mph13.0 kmh 29.49 in998.6 mb - 0.00 in0.0 mm 0.00 in0.0 mm
04:45 AM 55.9°F13.3°C 49.1°F9.5°C 78% 6.9 mph E11.1 kmh E 9.2 mph14.8 kmh 29.48 in998.3 mb - 0.00 in0.0 mm 0.00 in0.0 mm
04:50 AM 55.9°F13.3°C 49.1°F9.5°C 78% 4.6 mph SE7.4 kmh SE 8.1 mph13.0 kmh 29.48 in998.3 mb - 0.00 in0.0 mm 0.00 in0.0 mm
04:55 AM 55.8°F13.2°C 49.0°F9.4°C 78% 4.6 mph E7.4 kmh E 6.9 mph11.1 kmh 29.47 in998.0 mb - 0.00 in0.0 mm 0.00 in0.0 mm
05:00 AM 55.6°F13.1°C 48.8°F9.3°C 78% 2.3 mph E3.7 kmh E 3.5 mph5.6 kmh 29.47 in998.0 mb - 0.00 in0.0 mm 0.00 in0.0 mm
05:05 AM 55.5°F13.1°C 48.8°F9.3°C 78% 1.2 mph NNW1.9 kmh NNW 2.3 mph3.7 kmh 29.47 in998.0 mb - 0.00 in0.0 mm 0.00 in0.0 mm
05:10 AM 55.3°F12.9°C 48.6°F9.2°C 78% 2.3 mph WSW3.7 kmh WSW 2.3 mph3.7 kmh 29.47 in998.0 mb - 0.00 in0.0 mm 0.00 in0.0 mm
05:15 AM 55.2°F12.9°C 48.5°F9.2°C 78% 2.3 mph E3.7 kmh E 3.5 mph5.6 kmh 29.47 in998.0 mb - 0.00 in0.0 mm 0.00 in0.0 mm
05:20 AM 55.3°F12.9°C 48.5°F9.2°C 78% 2.3 mph ENE3.7 kmh ENE 3.5 mph5.6 kmh 29.47 in998.0 mb - 0.00 in0.0 mm 0.00 in0.0 mm
05:25 AM 55.2°F12.9°C 48.5°F9.2°C 78% 5.8 mph E9.3 kmh E 9.2 mph14.8 kmh 29.47 in998.0 mb - 0.00 in0.0 mm 0.00 in0.0 mm
05:30 AM 55.4°F13.0°C 48.7°F9.3°C 78% 5.8 mph E9.3 kmh E 11.5 mph18.5 kmh 29.46 in997.6 mb - 0.00 in0.0 mm 0.00 in0.0 mm
05:35 AM 55.7°F13.2°C 48.9°F9.4°C 78% 5.8 mph E9.3 kmh E 9.2 mph14.8 kmh 29.45 in997.3 mb - 0.00 in0.0 mm 0.00 in0.0 mm
05:40 AM 56.1°F13.4°C 49.0°F9.4°C 77% 6.9 mph E11.1 kmh E 11.5 mph18.5 kmh 29.45 in997.3 mb - 0.00 in0.0 mm 0.00 in0.0 mm
05:45 AM 56.4°F13.6°C 49.3°F9.6°C 77% 8.1 mph ESE13.0 kmh ESE 11.5 mph18.5 kmh 29.45 in997.3 mb - 0.00 in0.0 mm 0.00 in0.0 mm
05:50 AM 56.6°F13.7°C 49.5°F9.7°C 77% 4.6 mph SE7.4 kmh SE 9.2 mph14.8 kmh 29.45 in997.3 mb - 0.00 in0.0 mm 0.00 in0.0 mm
05:55 AM 56.6°F13.7°C 49.5°F9.7°C 77% 6.9 mph E11.1 kmh E 9.2 mph14.8 kmh 29.45 in997.3 mb - 0.00 in0.0 mm 0.00 in0.0 mm
06:00 AM 56.6°F13.7°C 49.8°F9.9°C 78% 6.9 mph SE11.1 kmh SE 12.7 mph20.4 kmh 29.45 in997.3 mb - 0.00 in0.0 mm 0.00 in0.0 mm
06:05 AM 56.5°F13.6°C 49.7°F9.8°C 78% 5.8 mph ESE9.3 kmh ESE 11.5 mph18.5 kmh 29.45 in997.3 mb - 0.00 in0.0 mm 0.00 in0.0 mm
06:10 AM 56.6°F13.7°C 49.8°F9.9°C 78% 6.9 mph ESE11.1 kmh ESE 11.5 mph18.5 kmh 29.45 in997.3 mb - 0.00 in0.0 mm 0.00 in0.0 mm
06:15 AM 56.8°F13.8°C 49.7°F9.8°C 77% 6.9 mph E11.1 kmh E 11.5 mph18.5 kmh 29.45 in997.3 mb - 0.00 in0.0 mm 0.00 in0.0 mm
06:20 AM 56.8°F13.8°C 49.7°F9.8°C 77% 4.6 mph ESE7.4 kmh ESE 9.2 mph14.8 kmh 29.45 in997.3 mb - 0.00 in0.0 mm 0.00 in0.0 mm
06:25 AM 56.8°F13.8°C 50.0°F10.0°C 78% 9.2 mph ESE14.8 kmh ESE 11.5 mph18.5 kmh 29.45 in997.3 mb - 0.00 in0.0 mm 0.00 in0.0 mm
06:30 AM 56.8°F13.8°C 49.7°F9.8°C 77% 9.2 mph ESE14.8 kmh ESE 12.7 mph20.4 kmh 29.45 in997.3 mb - 0.00 in0.0 mm 0.00 in0.0 mm
06:35 AM 57.0°F13.9°C 49.9°F9.9°C 77% 12.7 mph E20.4 kmh E 16.1 mph25.9 kmh 29.45 in997.3 mb - 0.00 in0.0 mm 0.00 in0.0 mm
06:40 AM 57.2°F14.0°C 50.1°F10.1°C 77% 9.2 mph E14.8 kmh E 13.8 mph22.2 kmh 29.44 in997.0 mb - 0.00 in0.0 mm 0.00 in0.0 mm
06:45 AM 57.2°F14.0°C 50.1°F10.1°C 77% 9.2 mph E14.8 kmh E 15.0 mph24.1 kmh 29.44 in997.0 mb - 0.00 in0.0 mm 0.00 in0.0 mm
06:50 AM 57.2°F14.0°C 50.1°F10.1°C 77% 9.2 mph ESE14.8 kmh ESE 11.5 mph18.5 kmh 29.44 in997.0 mb - 0.00 in0.0 mm 0.00 in0.0 mm
06:55 AM 57.2°F14.0°C 50.0°F10.0°C 77% 9.2 mph ESE14.8 kmh ESE 13.8 mph22.2 kmh 29.44 in997.0 mb - 0.00 in0.0 mm 0.00 in0.0 mm
07:00 AM 57.0°F13.9°C 49.9°F9.9°C 77% 13.8 mph ESE22.2 kmh ESE 19.6 mph31.5 kmh 29.44 in997.0 mb - 0.00 in0.0 mm 0.00 in0.0 mm
07:05 AM 57.1°F13.9°C 50.0°F10.0°C 77% 13.8 mph E22.2 kmh E 19.6 mph31.5 kmh 29.45 in997.3 mb - 0.00 in0.0 mm 0.00 in0.0 mm
07:10 AM 57.0°F13.9°C 49.8°F9.9°C 77% 10.4 mph E16.7 kmh E 12.7 mph20.4 kmh 29.45 in997.3 mb - 0.00 in0.0 mm 0.00 in0.0 mm
07:15 AM 56.8°F13.8°C 50.0°F10.0°C 78% 11.5 mph E18.5 kmh E 11.5 mph18.5 kmh 29.45 in997.3 mb - 0.00 in0.0 mm 0.00 in0.0 mm
07:20 AM 56.8°F13.8°C 50.0°F10.0°C 78% 9.2 mph E14.8 kmh E 11.5 mph18.5 kmh 29.44 in997.0 mb - 0.00 in0.0 mm 0.00 in0.0 mm
07:25 AM 56.8°F13.8°C 50.0°F10.0°C 78% 11.5 mph E18.5 kmh E 13.8 mph22.2 kmh 29.44 in997.0 mb - 0.00 in0.0 mm 0.00 in0.0 mm
07:30 AM 56.9°F13.8°C 49.8°F9.9°C 77% 10.4 mph E16.7 kmh E 13.8 mph22.2 kmh 29.43 in996.6 mb - 0.00 in0.0 mm 0.00 in0.0 mm
07:35 AM 57.0°F13.9°C 49.9°F9.9°C 77% 8.1 mph ESE13.0 kmh ESE 10.4 mph16.7 kmh 29.44 in997.0 mb - 0.00 in0.0 mm 0.00 in0.0 mm
07:40 AM 57.0°F13.9°C 49.9°F9.9°C 77% 9.2 mph ESE14.8 kmh ESE 11.5 mph18.5 kmh 29.44 in997.0 mb - 0.00 in0.0 mm 0.00 in0.0 mm
07:45 AM 57.1°F13.9°C 50.0°F10.0°C 77% 9.2 mph ESE14.8 kmh ESE 12.7 mph20.4 kmh 29.44 in997.0 mb - 0.00 in0.0 mm 0.00 in0.0 mm
07:50 AM 57.0°F13.9°C 49.9°F9.9°C 77% 10.4 mph E16.7 kmh E 12.7 mph20.4 kmh 29.43 in996.6 mb - 0.00 in0.0 mm 0.00 in0.0 mm
07:55 AM 56.9°F13.8°C 49.8°F9.9°C 77% 8.1 mph ESE13.0 kmh ESE 13.8 mph22.2 kmh 29.44 in997.0 mb - 0.00 in0.0 mm 0.00 in0.0 mm
08:00 AM 56.9°F13.8°C 49.8°F9.9°C 77% 6.9 mph E11.1 kmh E 11.5 mph18.5 kmh 29.44 in997.0 mb - 0.00 in0.0 mm 0.00 in0.0 mm
08:05 AM 57.1°F13.9°C 50.0°F10.0°C 77% 10.4 mph E16.7 kmh E 16.1 mph25.9 kmh 29.43 in996.6 mb - 0.00 in0.0 mm 0.00 in0.0 mm
08:10 AM 57.2°F14.0°C 50.1°F10.1°C 77% 6.9 mph E11.1 kmh E 10.4 mph16.7 kmh 29.43 in996.6 mb - 0.00 in0.0 mm 0.00 in0.0 mm
08:15 AM 57.3°F14.1°C 50.1°F10.1°C 77% 8.1 mph ESE13.0 kmh ESE 11.5 mph18.5 kmh 29.43 in996.6 mb - 0.00 in0.0 mm 0.00 in0.0 mm
08:20 AM 57.5°F14.2°C 50.4°F10.2°C 77% 9.2 mph ESE14.8 kmh ESE 11.5 mph18.5 kmh 29.43 in996.6 mb - 0.00 in0.0 mm 0.00 in0.0 mm
08:25 AM 57.7°F14.3°C 50.5°F10.3°C 77% 6.9 mph E11.1 kmh E 11.5 mph18.5 kmh 29.43 in996.6 mb - 0.00 in0.0 mm 0.00 in0.0 mm
08:30 AM 57.7°F14.3°C 50.5°F10.3°C 77% 8.1 mph E13.0 kmh E 11.5 mph18.5 kmh 29.43 in996.6 mb - 0.00 in0.0 mm 0.00 in0.0 mm
08:35 AM 57.6°F14.2°C 50.4°F10.2°C 77% 9.2 mph E14.8 kmh E 12.7 mph20.4 kmh 29.42 in996.3 mb - 0.00 in0.0 mm 0.00 in0.0 mm
08:40 AM 57.5°F14.2°C 50.4°F10.2°C 77% 6.9 mph ESE11.1 kmh ESE 11.5 mph18.5 kmh 29.42 in996.3 mb - 0.00 in0.0 mm 0.00 in0.0 mm
08:45 AM 57.6°F14.2°C 50.4°F10.2°C 77% 8.1 mph E13.0 kmh E 11.5 mph18.5 kmh 29.42 in996.3 mb - 0.00 in0.0 mm 0.00 in0.0 mm
08:50 AM 57.7°F14.3°C 50.5°F10.3°C 77% 6.9 mph ESE11.1 kmh ESE 11.5 mph18.5 kmh 29.42 in996.3 mb - 0.00 in0.0 mm 0.00 in0.0 mm
08:55 AM 57.8°F14.3°C 50.6°F10.3°C 77% 6.9 mph E11.1 kmh E 9.2 mph14.8 kmh 29.42 in996.3 mb - 0.00 in0.0 mm 0.00 in0.0 mm
09:00 AM 57.9°F14.4°C 50.7°F10.4°C 77% 8.1 mph SE13.0 kmh SE 11.5 mph18.5 kmh 29.42 in996.3 mb - 0.00 in0.0 mm 0.00 in0.0 mm
09:05 AM 58.0°F14.4°C 50.8°F10.4°C 77% 6.9 mph E11.1 kmh E 11.5 mph18.5 kmh 29.42 in996.3 mb - 0.00 in0.0 mm 0.00 in0.0 mm
09:10 AM 58.1°F14.5°C 50.9°F10.5°C 77% 8.1 mph E13.0 kmh E 13.8 mph22.2 kmh 29.42 in996.3 mb - 0.00 in0.0 mm 0.00 in0.0 mm
09:15 AM 58.3°F14.6°C 51.1°F10.6°C 77% 9.2 mph E14.8 kmh E 11.5 mph18.5 kmh 29.42 in996.3 mb - 0.00 in0.0 mm 0.00 in0.0 mm
09:20 AM 58.6°F14.8°C 51.4°F10.8°C 77% 8.1 mph E13.0 kmh E 11.5 mph18.5 kmh 29.41 in995.9 mb - 0.00 in0.0 mm 0.00 in0.0 mm
09:25 AM 58.7°F14.8°C 51.5°F10.8°C 77% 10.4 mph E16.7 kmh E 13.8 mph22.2 kmh 29.41 in995.9 mb - 0.00 in0.0 mm 0.00 in0.0 mm
09:30 AM 58.9°F14.9°C 51.7°F10.9°C 77% 6.9 mph E11.1 kmh E 9.2 mph14.8 kmh 29.42 in996.3 mb - 0.00 in0.0 mm 0.00 in0.0 mm
09:35 AM 58.9°F14.9°C 51.7°F10.9°C 77% 6.9 mph E11.1 kmh E 10.4 mph16.7 kmh 29.42 in996.3 mb - 0.00 in0.0 mm 0.00 in0.0 mm
09:40 AM 59.0°F15.0°C 51.8°F11.0°C 77% 6.9 mph E11.1 kmh E 11.5 mph18.5 kmh 29.42 in996.3 mb - 0.00 in0.0 mm 0.00 in0.0 mm
09:45 AM 59.1°F15.1°C 51.9°F11.1°C 77% 8.1 mph E13.0 kmh E 11.5 mph18.5 kmh 29.42 in996.3 mb - 0.00 in0.0 mm 0.00 in0.0 mm
09:50 AM 59.1°F15.1°C 51.9°F11.1°C 77% 6.9 mph E11.1 kmh E 9.2 mph14.8 kmh 29.42 in996.3 mb - 0.00 in0.0 mm 0.00 in0.0 mm
09:55 AM 59.1°F15.1°C 51.9°F11.1°C 77% 6.9 mph E11.1 kmh E 9.2 mph14.8 kmh 29.41 in995.9 mb - 0.00 in0.0 mm 0.00 in0.0 mm
10:00 AM 59.1°F15.1°C 51.9°F11.1°C 77% 6.9 mph E11.1 kmh E 10.4 mph16.7 kmh 29.41 in995.9 mb - 0.00 in0.0 mm 0.00 in0.0 mm
10:05 AM 59.2°F15.1°C 52.0°F11.1°C 77% 5.8 mph ESE9.3 kmh ESE 9.2 mph14.8 kmh 29.41 in995.9 mb - 0.00 in0.0 mm 0.00 in0.0 mm
10:10 AM 59.3°F15.2°C 52.1°F11.2°C 77% 5.8 mph E9.3 kmh E 10.4 mph16.7 kmh 29.41 in995.9 mb - 0.00 in0.0 mm 0.00 in0.0 mm
10:15 AM 59.4°F15.2°C 52.2°F11.2°C 77% 5.8 mph E9.3 kmh E 9.2 mph14.8 kmh 29.41 in995.9 mb - 0.00 in0.0 mm 0.00 in0.0 mm
10:20 AM 59.5°F15.3°C 52.3°F11.3°C 77% 6.9 mph ESE11.1 kmh ESE 8.1 mph13.0 kmh 29.41 in995.9 mb - 0.00 in0.0 mm 0.00 in0.0 mm
10:25 AM 59.5°F15.3°C 52.3°F11.3°C 77% 8.1 mph E13.0 kmh E 12.7 mph20.4 kmh 29.41 in995.9 mb - 0.00 in0.0 mm 0.00 in0.0 mm
10:30 AM 59.6°F15.3°C 52.4°F11.3°C 77% 8.1 mph E13.0 kmh E 9.2 mph14.8 kmh 29.41 in995.9 mb - 0.00 in0.0 mm 0.00 in0.0 mm
10:35 AM 59.8°F15.4°C 52.6°F11.4°C 77% 6.9 mph E11.1 kmh E 9.2 mph14.8 kmh 29.41 in995.9 mb - 0.00 in0.0 mm 0.00 in0.0 mm
10:40 AM 60.0°F15.6°C 52.8°F11.6°C 77% 6.9 mph ESE11.1 kmh ESE 11.5 mph18.5 kmh 29.41 in995.9 mb - 0.00 in0.0 mm 0.00 in0.0 mm
10:45 AM 60.1°F15.6°C 52.9°F11.6°C 77% 8.1 mph E13.0 kmh E 11.5 mph18.5 kmh 29.41 in995.9 mb - 0.00 in0.0 mm 0.00 in0.0 mm
10:50 AM 60.2°F15.7°C 53.0°F11.7°C 77% 6.9 mph E11.1 kmh E 10.4 mph16.7 kmh 29.41 in995.9 mb - 0.00 in0.0 mm 0.00 in0.0 mm
10:55 AM 60.4°F15.8°C 53.1°F11.7°C 77% 6.9 mph E11.1 kmh E 10.4 mph16.7 kmh 29.41 in995.9 mb - 0.00 in0.0 mm 0.00 in0.0 mm
11:00 AM 60.5°F15.8°C 53.2°F11.8°C 77% 5.8 mph E9.3 kmh E 8.1 mph13.0 kmh 29.41 in995.9 mb - 0.00 in0.0 mm 0.00 in0.0 mm
11:05 AM 60.5°F15.8°C 53.3°F11.8°C 77% 5.8 mph ESE9.3 kmh ESE 6.9 mph11.1 kmh 29.41 in995.9 mb - 0.00 in0.0 mm 0.00 in0.0 mm
11:10 AM 60.6°F15.9°C 53.3°F11.8°C 77% 4.6 mph E7.4 kmh E 5.8 mph9.3 kmh 29.40 in995.6 mb - 0.00 in0.0 mm 0.00 in0.0 mm
11:15 AM 60.6°F15.9°C 53.3°F11.8°C 77% 4.6 mph E7.4 kmh E 8.1 mph13.0 kmh 29.40 in995.6 mb - 0.00 in0.0 mm 0.00 in0.0 mm
11:20 AM 60.6°F15.9°C 53.3°F11.8°C 77% 4.6 mph E7.4 kmh E 8.1 mph13.0 kmh 29.40 in995.6 mb - 0.00 in0.0 mm 0.00 in0.0 mm
11:25 AM 60.6°F15.9°C 53.3°F11.8°C 77% 6.9 mph E11.1 kmh E 8.1 mph13.0 kmh 29.39 in995.3 mb - 0.00 in0.0 mm 0.00 in0.0 mm
11:30 AM 60.6°F15.9°C 53.3°F11.8°C 77% 4.6 mph ESE7.4 kmh ESE 9.2 mph14.8 kmh 29.40 in995.6 mb - 0.00 in0.0 mm 0.00 in0.0 mm
11:35 AM 60.7°F15.9°C 53.4°F11.9°C 77% 6.9 mph ESE11.1 kmh ESE 10.4 mph16.7 kmh 29.40 in995.6 mb - 0.00 in0.0 mm 0.00 in0.0 mm
11:40 AM 60.8°F16.0°C 53.5°F11.9°C 77% 8.1 mph E13.0 kmh E 9.2 mph14.8 kmh 29.39 in995.3 mb - 0.00 in0.0 mm 0.00 in0.0 mm
11:45 AM 60.8°F16.0°C 53.5°F11.9°C 77% 4.6 mph ESE7.4 kmh ESE 8.1 mph13.0 kmh 29.39 in995.3 mb - 0.00 in0.0 mm 0.00 in0.0 mm
11:50 AM 60.7°F15.9°C 53.4°F11.9°C 77% 6.9 mph E11.1 kmh E 9.2 mph14.8 kmh 29.39 in995.3 mb - 0.00 in0.0 mm 0.00 in0.0 mm
11:55 AM 60.5°F15.8°C 53.3°F11.8°C 77% 5.8 mph E9.3 kmh E 10.4 mph16.7 kmh 29.39 in995.3 mb - 0.00 in0.0 mm 0.00 in0.0 mm
12:00 PM 60.2°F15.7°C 53.0°F11.7°C 77% 5.8 mph ESE9.3 kmh ESE 10.4 mph16.7 kmh 29.39 in995.3 mb - 0.00 in0.0 mm 0.00 in0.0 mm
12:05 PM 59.9°F15.5°C 52.7°F11.5°C 77% 5.8 mph ESE9.3 kmh ESE 6.9 mph11.1 kmh 29.40 in995.6 mb - 0.00 in0.0 mm 0.00 in0.0 mm
12:10 PM 59.6°F15.3°C 52.4°F11.3°C 77% 3.5 mph ESE5.6 kmh ESE 6.9 mph11.1 kmh 29.39 in995.3 mb - 0.01 in0.3 mm 0.01 in0.3 mm
12:15 PM 59.3°F15.2°C 52.1°F11.2°C 77% 5.8 mph E9.3 kmh E 6.9 mph11.1 kmh 29.39 in995.3 mb - 0.00 in0.0 mm 0.01 in0.3 mm
12:20 PM 59.1°F15.1°C 51.9°F11.1°C 77% 5.8 mph E9.3 kmh E 10.4 mph16.7 kmh 29.39 in995.3 mb - 0.01 in0.3 mm 0.02 in0.5 mm
12:25 PM 58.9°F14.9°C 51.7°F10.9°C 77% 4.6 mph ESE7.4 kmh ESE 6.9 mph11.1 kmh 29.39 in995.3 mb - 0.00 in0.0 mm 0.02 in0.5 mm
12:30 PM 58.8°F14.9°C 51.6°F10.9°C 77% 4.6 mph ESE7.4 kmh ESE 4.6 mph7.4 kmh 29.39 in995.3 mb - 0.00 in0.0 mm 0.02 in0.5 mm
12:35 PM 58.7°F14.8°C 51.5°F10.8°C 77% 6.9 mph E11.1 kmh E 10.4 mph16.7 kmh 29.39 in995.3 mb - 0.00 in0.0 mm 0.02 in0.5 mm
12:40 PM 58.7°F14.8°C 51.5°F10.8°C 77% 6.9 mph E11.1 kmh E 10.4 mph16.7 kmh 29.39 in995.3 mb - 0.00 in0.0 mm 0.02 in0.5 mm
12:45 PM 58.8°F14.9°C 51.7°F10.9°C 77% 4.6 mph E7.4 kmh E 6.9 mph11.1 kmh 29.39 in995.3 mb - 0.00 in0.0 mm 0.02 in0.5 mm
12:50 PM 59.1°F15.1°C 51.8°F11.0°C 77% 4.6 mph E7.4 kmh E 10.4 mph16.7 kmh 29.39 in995.3 mb - 0.00 in0.0 mm 0.02 in0.5 mm
12:55 PM 59.3°F15.2°C 52.1°F11.2°C 77% 6.9 mph E11.1 kmh E 9.2 mph14.8 kmh 29.39 in995.3 mb - 0.00 in0.0 mm 0.02 in0.5 mm
01:00 PM 59.6°F15.3°C 52.4°F11.3°C 77% 5.8 mph E9.3 kmh E 10.4 mph16.7 kmh 29.38 in994.9 mb - 0.00 in0.0 mm 0.02 in0.5 mm
01:05 PM 60.0°F15.6°C 52.8°F11.6°C 77% 4.6 mph E7.4 kmh E 5.8 mph9.3 kmh 29.38 in994.9 mb - 0.00 in0.0 mm 0.02 in0.5 mm
01:10 PM 60.2°F15.7°C 53.0°F11.7°C 77% 9.2 mph E14.8 kmh E 11.5 mph18.5 kmh 29.38 in994.9 mb - 0.00 in0.0 mm 0.02 in0.5 mm
01:15 PM 60.4°F15.8°C 53.1°F11.7°C 77% 5.8 mph SE9.3 kmh SE 10.4 mph16.7 kmh 29.38 in994.9 mb - 0.00 in0.0 mm 0.02 in0.5 mm
01:20 PM 60.6°F15.9°C 53.3°F11.8°C 77% 9.2 mph E14.8 kmh E 11.5 mph18.5 kmh 29.38 in994.9 mb - 0.00 in0.0 mm 0.02 in0.5 mm
01:25 PM 60.9°F16.1°C 53.6°F12.0°C 77% 8.1 mph ESE13.0 kmh ESE 12.7 mph20.4 kmh 29.38 in994.9 mb - 0.00 in0.0 mm 0.02 in0.5 mm
01:30 PM 61.1°F16.2°C 53.9°F12.2°C 77% 6.9 mph SE11.1 kmh SE 13.8 mph22.2 kmh 29.38 in994.9 mb - 0.00 in0.0 mm 0.02 in0.5 mm
01:35 PM 61.2°F16.2°C 53.9°F12.2°C 77% 8.1 mph SE13.0 kmh SE 12.7 mph20.4 kmh 29.38 in994.9 mb - 0.00 in0.0 mm 0.02 in0.5 mm
01:40 PM 61.2°F16.2°C 53.9°F12.2°C 77% 4.6 mph S7.4 kmh S 10.4 mph16.7 kmh 29.38 in994.9 mb - 0.00 in0.0 mm 0.02 in0.5 mm
01:45 PM 61.3°F16.3°C 54.0°F12.2°C 77% 2.3 mph SSE3.7 kmh SSE 3.5 mph5.6 kmh 29.38 in994.9 mb - 0.00 in0.0 mm 0.02 in0.5 mm
01:50 PM 61.4°F16.3°C 54.1°F12.3°C 77% 2.3 mph SE3.7 kmh SE 4.6 mph7.4 kmh 29.38 in994.9 mb - 0.00 in0.0 mm 0.02 in0.5 mm
01:55 PM 61.4°F16.3°C 54.1°F12.3°C 77% 4.6 mph ESE7.4 kmh ESE 4.6 mph7.4 kmh 29.38 in994.9 mb - 0.00 in0.0 mm 0.02 in0.5 mm
02:00 PM 61.3°F16.3°C 54.0°F12.2°C 77% 4.6 mph SE7.4 kmh SE 9.2 mph14.8 kmh 29.38 in994.9 mb - 0.00 in0.0 mm 0.02 in0.5 mm
02:05 PM 61.3°F16.3°C 54.0°F12.2°C 77% 4.6 mph SE7.4 kmh SE 5.8 mph9.3 kmh 29.38 in994.9 mb - 0.00 in0.0 mm 0.02 in0.5 mm
02:10 PM 61.2°F16.2°C 53.9°F12.2°C 77% 4.6 mph ESE7.4 kmh ESE 6.9 mph11.1 kmh 29.38 in994.9 mb - 0.00 in0.0 mm 0.02 in0.5 mm
02:15 PM 61.1°F16.2°C 53.5°F11.9°C 76% 5.8 mph SSE9.3 kmh SSE 10.4 mph16.7 kmh 29.38 in994.9 mb - 0.00 in0.0 mm 0.02 in0.5 mm
02:20 PM 61.2°F16.2°C 53.6°F12.0°C 76% 5.8 mph SE9.3 kmh SE 10.4 mph16.7 kmh 29.38 in994.9 mb - 0.00 in0.0 mm 0.02 in0.5 mm
02:25 PM 61.1°F16.2°C 53.5°F11.9°C 76% 5.8 mph SSE9.3 kmh SSE 8.1 mph13.0 kmh 29.39 in995.3 mb - 0.01 in0.3 mm 0.03 in0.8 mm
02:30 PM 60.8°F16.0°C 53.5°F11.9°C 77% 4.6 mph SSE7.4 kmh SSE 6.9 mph11.1 kmh 29.39 in995.3 mb - 0.00 in0.0 mm 0.03 in0.8 mm
02:35 PM 60.6°F15.9°C 53.3°F11.8°C 77% 2.3 mph SSE3.7 kmh SSE 3.5 mph5.6 kmh 29.38 in994.9 mb - 0.00 in0.0 mm 0.03 in0.8 mm
02:40 PM 60.3°F15.7°C 53.1°F11.7°C 77% 3.5 mph SE5.6 kmh SE 5.8 mph9.3 kmh 29.38 in994.9 mb - 0.00 in0.0 mm 0.03 in0.8 mm
02:45 PM 60.1°F15.6°C 52.9°F11.6°C 77% 2.3 mph E3.7 kmh E 3.5 mph5.6 kmh 29.38 in994.9 mb - 0.00 in0.0 mm 0.03 in0.8 mm
02:50 PM 60.0°F15.6°C 52.8°F11.6°C 77% 3.5 mph SE5.6 kmh SE 4.6 mph7.4 kmh 29.38 in994.9 mb - 0.00 in0.0 mm 0.03 in0.8 mm
02:55 PM 60.0°F15.6°C 52.8°F11.6°C 77% 1.2 mph SE1.9 kmh SE 3.5 mph5.6 kmh 29.38 in994.9 mb - 0.00 in0.0 mm 0.03 in0.8 mm
03:00 PM 59.9°F15.5°C 52.7°F11.5°C 77% 3.5 mph SSE5.6 kmh SSE 4.6 mph7.4 kmh 29.38 in994.9 mb - 0.00 in0.0 mm 0.03 in0.8 mm
03:05 PM 60.0°F15.6°C 52.8°F11.6°C 77% 3.5 mph SSE5.6 kmh SSE 6.9 mph11.1 kmh 29.38 in994.9 mb - 0.00 in0.0 mm 0.03 in0.8 mm
03:10 PM 60.0°F15.6°C 52.8°F11.6°C 77% 2.3 mph SE3.7 kmh SE 3.5 mph5.6 kmh 29.38 in994.9 mb - 0.00 in0.0 mm 0.03 in0.8 mm
03:15 PM 60.0°F15.6°C 52.8°F11.6°C 77% 3.5 mph SE5.6 kmh SE 6.9 mph11.1 kmh 29.38 in994.9 mb - 0.00 in0.0 mm 0.03 in0.8 mm
03:20 PM 60.0°F15.6°C 52.8°F11.6°C 77% 4.6 mph SE7.4 kmh SE 9.2 mph14.8 kmh 29.38 in994.9 mb - 0.00 in0.0 mm 0.03 in0.8 mm
03:25 PM 60.0°F15.6°C 52.8°F11.6°C 77% 4.6 mph SE7.4 kmh SE 8.1 mph13.0 kmh 29.38 in994.9 mb - 0.00 in0.0 mm 0.03 in0.8 mm
03:30 PM 60.0°F15.6°C 52.8°F11.6°C 77% 4.6 mph SE7.4 kmh SE 4.6 mph7.4 kmh 29.37 in994.6 mb - 0.00 in0.0 mm 0.03 in0.8 mm
03:35 PM 60.1°F15.6°C 52.9°F11.6°C 77% 3.5 mph SE5.6 kmh SE 5.8 mph9.3 kmh 29.38 in994.9 mb - 0.00 in0.0 mm 0.03 in0.8 mm
03:40 PM 60.1°F15.6°C 52.9°F11.6°C 77% 3.5 mph SE5.6 kmh SE 6.9 mph11.1 kmh 29.38 in994.9 mb - 0.00 in0.0 mm 0.03 in0.8 mm
03:45 PM 60.0°F15.6°C 52.8°F11.6°C 77% 5.8 mph SE9.3 kmh SE 10.4 mph16.7 kmh 29.38 in994.9 mb - 0.00 in0.0 mm 0.03 in0.8 mm
03:50 PM 60.0°F15.6°C 52.8°F11.6°C 77% 3.5 mph SE5.6 kmh SE 6.9 mph11.1 kmh 29.38 in994.9 mb - 0.00 in0.0 mm 0.03 in0.8 mm
03:55 PM 59.9°F15.5°C 52.7°F11.5°C 77% 4.6 mph SE7.4 kmh SE 8.1 mph13.0 kmh 29.38 in994.9 mb - 0.00 in0.0 mm 0.03 in0.8 mm
04:00 PM 59.8°F15.4°C 52.6°F11.4°C 77% 5.8 mph SE9.3 kmh SE 11.5 mph18.5 kmh 29.38 in994.9 mb - 0.00 in0.0 mm 0.03 in0.8 mm
04:05 PM 59.7°F15.4°C 52.5°F11.4°C 77% 3.5 mph SSE5.6 kmh SSE 5.8 mph9.3 kmh 29.38 in994.9 mb - 0.00 in0.0 mm 0.03 in0.8 mm
04:10 PM 59.6°F15.3°C 52.3°F11.3°C 77% 3.5 mph SE5.6 kmh SE 4.6 mph7.4 kmh 29.38 in994.9 mb - 0.01 in0.3 mm 0.03 in0.8 mm
04:15 PM 59.4°F15.2°C 52.2°F11.2°C 77% 4.6 mph SE7.4 kmh SE 11.5 mph18.5 kmh 29.38 in994.9 mb - 0.02 in0.5 mm 0.05 in1.3 mm
04:20 PM 59.1°F15.1°C 51.9°F11.1°C 77% 6.9 mph SE11.1 kmh SE 11.5 mph18.5 kmh 29.39 in995.3 mb - 0.01 in0.3 mm 0.06 in1.5 mm
04:25 PM 58.9°F14.9°C 51.7°F10.9°C 77% 9.2 mph ESE14.8 kmh ESE 11.5 mph18.5 kmh 29.39 in995.3 mb - 0.01 in0.3 mm 0.07 in1.8 mm
04:30 PM 58.6°F14.8°C 51.4°F10.8°C 77% 4.6 mph SE7.4 kmh SE 11.5 mph18.5 kmh 29.39 in995.3 mb - 0.00 in0.0 mm 0.07 in1.8 mm
04:35 PM 58.5°F14.7°C 51.3°F10.7°C 77% 6.9 mph SE11.1 kmh SE 10.4 mph16.7 kmh 29.39 in995.3 mb - 0.00 in0.0 mm 0.07 in1.8 mm
04:40 PM 58.3°F14.6°C 51.1°F10.6°C 77% 4.6 mph ESE7.4 kmh ESE 6.9 mph11.1 kmh 29.39 in995.3 mb - 0.00 in0.0 mm 0.07 in1.8 mm
04:45 PM 58.1°F14.5°C 50.9°F10.5°C 77% 4.6 mph ESE7.4 kmh ESE 8.1 mph13.0 kmh 29.39 in995.3 mb - 0.00 in0.0 mm 0.07 in1.8 mm
04:50 PM 58.0°F14.4°C 50.8°F10.4°C 77% 6.9 mph SE11.1 kmh SE 11.5 mph18.5 kmh 29.39 in995.3 mb - 0.00 in0.0 mm 0.07 in1.8 mm
04:55 PM 57.8°F14.3°C 50.6°F10.3°C 77% 4.6 mph ESE7.4 kmh ESE 8.1 mph13.0 kmh 29.40 in995.6 mb - 0.00 in0.0 mm 0.07 in1.8 mm
05:00 PM 57.7°F14.3°C 50.5°F10.3°C 77% 4.6 mph E7.4 kmh E 9.2 mph14.8 kmh 29.40 in995.6 mb - 0.00 in0.0 mm 0.07 in1.8 mm
05:05 PM 57.6°F14.2°C 50.4°F10.2°C 77% 5.8 mph E9.3 kmh E 8.1 mph13.0 kmh 29.40 in995.6 mb - 0.00 in0.0 mm 0.07 in1.8 mm
05:10 PM 57.5°F14.2°C 50.3°F10.2°C 77% 5.8 mph ESE9.3 kmh ESE 9.2 mph14.8 kmh 29.41 in995.9 mb - 0.00 in0.0 mm 0.07 in1.8 mm
05:15 PM 57.5°F14.2°C 50.3°F10.2°C 77% 4.6 mph SE7.4 kmh SE 3.5 mph5.6 kmh 29.42 in996.3 mb - 0.01 in0.3 mm 0.07 in1.8 mm
05:20 PM 57.2°F14.0°C 50.1°F10.1°C 77% 9.2 mph SW14.8 kmh SW 18.4 mph29.6 kmh 29.44 in997.0 mb - 0.01 in0.3 mm 0.07 in1.8 mm
05:25 PM 56.1°F13.4°C 48.9°F9.4°C 77% 5.8 mph SW9.3 kmh SW 11.5 mph18.5 kmh 29.44 in997.0 mb - 0.00 in0.0 mm 0.07 in1.8 mm
05:30 PM 55.5°F13.1°C 48.4°F9.1°C 77% 3.5 mph SW5.6 kmh SW 4.6 mph7.4 kmh 29.44 in997.0 mb - 0.00 in0.0 mm 0.07 in1.8 mm
05:35 PM 55.1°F12.8°C 48.0°F8.9°C 77% 5.8 mph WSW9.3 kmh WSW 11.5 mph18.5 kmh 29.45 in997.3 mb - 0.00 in0.0 mm 0.07 in1.8 mm
05:40 PM 54.8°F12.7°C 47.7°F8.7°C 77% 3.5 mph WSW5.6 kmh WSW 6.9 mph11.1 kmh 29.45 in997.3 mb - 0.00 in0.0 mm 0.07 in1.8 mm
05:45 PM 54.6°F12.6°C 47.5°F8.6°C 77% 5.8 mph WSW9.3 kmh WSW 9.2 mph14.8 kmh 29.45 in997.3 mb - 0.00 in0.0 mm 0.07 in1.8 mm
05:50 PM 54.2°F12.3°C 47.1°F8.4°C 77% 4.6 mph WSW7.4 kmh WSW 6.9 mph11.1 kmh 29.45 in997.3 mb - 0.00 in0.0 mm 0.07 in1.8 mm
05:55 PM 54.0°F12.2°C 47.0°F8.3°C 77% 4.6 mph SW7.4 kmh SW 9.2 mph14.8 kmh 29.46 in997.6 mb - 0.00 in0.0 mm 0.07 in1.8 mm
06:00 PM 53.9°F12.2°C 46.9°F8.3°C 77% 3.5 mph SW5.6 kmh SW 3.5 mph5.6 kmh 29.46 in997.6 mb - 0.00 in0.0 mm 0.07 in1.8 mm
06:05 PM 53.8°F12.1°C 46.8°F8.2°C 77% 2.3 mph SW3.7 kmh SW 3.5 mph5.6 kmh 29.46 in997.6 mb - 0.00 in0.0 mm 0.07 in1.8 mm
06:10 PM 53.7°F12.1°C 46.7°F8.2°C 77% 1.2 mph WSW1.9 kmh WSW 2.3 mph3.7 kmh 29.46 in997.6 mb - 0.00 in0.0 mm 0.07 in1.8 mm
06:15 PM 53.6°F12.0°C 46.6°F8.1°C 77% 1.2 mph SW1.9 kmh SW 4.6 mph7.4 kmh 29.46 in997.6 mb - 0.00 in0.0 mm 0.07 in1.8 mm
06:20 PM 53.5°F11.9°C 46.5°F8.1°C 77% 1.2 mph SW1.9 kmh SW 3.5 mph5.6 kmh 29.46 in997.6 mb - 0.00 in0.0 mm 0.07 in1.8 mm
06:25 PM 53.3°F11.8°C 46.3°F7.9°C 77% Calm Calm -- 29.46 in997.6 mb - 0.01 in0.3 mm 0.08 in2.0 mm
06:30 PM 53.2°F11.8°C 46.2°F7.9°C 77% 1.2 mph SW1.9 kmh SW 2.3 mph3.7 kmh 29.46 in997.6 mb - 0.01 in0.3 mm 0.08 in2.0 mm
06:35 PM 53.1°F11.7°C 46.1°F7.8°C 77% 2.3 mph WSW3.7 kmh WSW 3.5 mph5.6 kmh 29.46 in997.6 mb - 0.00 in0.0 mm 0.08 in2.0 mm
06:40 PM 52.9°F11.6°C 45.9°F7.7°C 77% Calm Calm 1.2 mph1.9 kmh 29.46 in997.6 mb - 0.00 in0.0 mm 0.08 in2.0 mm
06:45 PM 52.7°F11.5°C 45.7°F7.6°C 77% 1.2 mph SW1.9 kmh SW 2.3 mph3.7 kmh 29.47 in998.0 mb - 0.00 in0.0 mm 0.08 in2.0 mm
06:50 PM 52.6°F11.4°C 45.6°F7.6°C 77% 1.2 mph SW1.9 kmh SW 2.3 mph3.7 kmh 29.47 in998.0 mb - 0.00 in0.0 mm 0.08 in2.0 mm
06:55 PM 52.4°F11.3°C 45.4°F7.4°C 77% 1.2 mph WSW1.9 kmh WSW 3.5 mph5.6 kmh 29.47 in998.0 mb - 0.00 in0.0 mm 0.08 in2.0 mm
07:00 PM 52.3°F11.3°C 45.3°F7.4°C 77% Calm Calm -- 29.46 in997.6 mb - 0.00 in0.0 mm 0.08 in2.0 mm
07:05 PM 52.3°F11.3°C 45.3°F7.4°C 77% Calm Calm -- 29.46 in997.6 mb - 0.00 in0.0 mm 0.08 in2.0 mm
07:10 PM 52.3°F11.3°C 45.3°F7.4°C 77% Calm Calm -- 29.46 in997.6 mb - 0.00 in0.0 mm 0.08 in2.0 mm
07:15 PM 52.3°F11.3°C 45.3°F7.4°C 77% Calm Calm -- 29.47 in998.0 mb - 0.00 in0.0 mm 0.08 in2.0 mm
07:20 PM 52.4°F11.3°C 45.4°F7.4°C 77% Calm Calm -- 29.48 in998.3 mb - 0.00 in0.0 mm 0.08 in2.0 mm
07:25 PM 52.4°F11.3°C 45.4°F7.4°C 77% Calm Calm -- 29.47 in998.0 mb - 0.00 in0.0 mm 0.08 in2.0 mm
07:30 PM 52.4°F11.3°C 45.4°F7.4°C 77% Calm Calm -- 29.47 in998.0 mb - 0.00 in0.0 mm 0.08 in2.0 mm
07:35 PM 52.4°F11.3°C 45.7°F7.6°C 78% Calm Calm -- 29.47 in998.0 mb - 0.00 in0.0 mm 0.08 in2.0 mm
07:40 PM 52.3°F11.3°C 45.6°F7.6°C 78% Calm Calm -- 29.47 in998.0 mb - 0.00 in0.0 mm 0.08 in2.0 mm
07:45 PM 52.2°F11.2°C 45.2°F7.3°C 77% Calm Calm -- 29.48 in998.3 mb - 0.00 in0.0 mm 0.08 in2.0 mm
07:50 PM 51.9°F11.1°C 44.9°F7.2°C 77% 2.3 mph NW3.7 kmh NW 3.5 mph5.6 kmh 29.48 in998.3 mb - 0.00 in0.0 mm 0.08 in2.0 mm
07:55 PM 51.7°F10.9°C 45.1°F7.3°C 78% 1.2 mph NW1.9 kmh NW 1.2 mph1.9 kmh 29.49 in998.6 mb - 0.00 in0.0 mm 0.08 in2.0 mm
08:00 PM 51.6°F10.9°C 45.0°F7.2°C 78% Calm Calm -- 29.49 in998.6 mb - 0.00 in0.0 mm 0.08 in2.0 mm
08:05 PM 51.5°F10.8°C 44.5°F6.9°C 77% Calm Calm 2.3 mph3.7 kmh 29.49 in998.6 mb - 0.00 in0.0 mm 0.08 in2.0 mm
08:10 PM 51.6°F10.9°C 44.6°F7.0°C 77% 1.2 mph SSW1.9 kmh SSW 2.3 mph3.7 kmh 29.49 in998.6 mb - 0.00 in0.0 mm 0.08 in2.0 mm
08:15 PM 51.5°F10.8°C 44.5°F6.9°C 77% Calm Calm 1.2 mph1.9 kmh 29.49 in998.6 mb - 0.00 in0.0 mm 0.08 in2.0 mm
08:20 PM 51.3°F10.7°C 44.3°F6.8°C 77% Calm Calm -- 29.49 in998.6 mb - 0.00 in0.0 mm 0.08 in2.0 mm
08:25 PM 51.1°F10.6°C 44.5°F6.9°C 78% Calm Calm -- 29.50 in999.0 mb - 0.00 in0.0 mm 0.08 in2.0 mm
08:30 PM 50.8°F10.4°C 44.2°F6.8°C 78% Calm Calm -- 29.50 in999.0 mb - 0.00 in0.0 mm 0.08 in2.0 mm
08:35 PM 50.7°F10.4°C 44.1°F6.7°C 78% 1.2 mph SW1.9 kmh SW 1.2 mph1.9 kmh 29.50 in999.0 mb - 0.00 in0.0 mm 0.08 in2.0 mm
08:40 PM 50.6°F10.3°C 44.0°F6.7°C 78% 2.3 mph SW3.7 kmh SW 3.5 mph5.6 kmh 29.50 in999.0 mb - 0.00 in0.0 mm 0.08 in2.0 mm
08:45 PM 50.6°F10.3°C 44.0°F6.7°C 78% Calm Calm 1.2 mph1.9 kmh 29.51 in999.3 mb - 0.00 in0.0 mm 0.08 in2.0 mm
08:50 PM 50.5°F10.3°C 43.9°F6.6°C 78% Calm Calm -- 29.51 in999.3 mb - 0.00 in0.0 mm 0.08 in2.0 mm
08:55 PM 50.4°F10.2°C 43.8°F6.6°C 78% Calm Calm -- 29.51 in999.3 mb - 0.00 in0.0 mm 0.08 in2.0 mm
09:00 PM 50.3°F10.2°C 43.7°F6.5°C 78% Calm Calm 1.2 mph1.9 kmh 29.52 in999.7 mb - 0.00 in0.0 mm 0.08 in2.0 mm
09:05 PM 50.1°F10.1°C 43.5°F6.4°C 78% Calm Calm -- 29.52 in999.7 mb - 0.00 in0.0 mm 0.08 in2.0 mm
09:10 PM 50.1°F10.1°C 43.5°F6.4°C 78% Calm Calm -- 29.52 in999.7 mb - 0.00 in0.0 mm 0.08 in2.0 mm
09:15 PM 50.1°F10.1°C 43.5°F6.4°C 78% Calm Calm -- 29.52 in999.7 mb - 0.00 in0.0 mm 0.08 in2.0 mm
09:20 PM 50.1°F10.1°C 43.5°F6.4°C 78% Calm Calm -- 29.52 in999.7 mb - 0.00 in0.0 mm 0.08 in2.0 mm
09:25 PM 50.1°F10.1°C 43.5°F6.4°C 78% Calm Calm -- 29.52 in999.7 mb - 0.00 in0.0 mm 0.08 in2.0 mm
09:30 PM 50.3°F10.2°C 43.7°F6.5°C 78% Calm Calm -- 29.52 in999.7 mb - 0.00 in0.0 mm 0.08 in2.0 mm
09:35 PM 50.3°F10.2°C 43.7°F6.5°C 78% 1.2 mph NE1.9 kmh NE 2.3 mph3.7 kmh 29.51 in999.3 mb - 0.00 in0.0 mm 0.08 in2.0 mm
09:40 PM 50.1°F10.1°C 43.5°F6.4°C 78% 1.2 mph NE1.9 kmh NE 1.2 mph1.9 kmh 29.51 in999.3 mb - 0.00 in0.0 mm 0.08 in2.0 mm
09:45 PM 49.8°F9.9°C 43.2°F6.2°C 78% Calm Calm -- 29.52 in999.7 mb - 0.00 in0.0 mm 0.08 in2.0 mm
09:50 PM 49.6°F9.8°C 43.0°F6.1°C 78% Calm Calm -- 29.53 in1000.0 mb - 0.00 in0.0 mm 0.08 in2.0 mm
09:55 PM 49.5°F9.7°C 42.9°F6.1°C 78% Calm Calm -- 29.53 in1000.0 mb - 0.00 in0.0 mm 0.08 in2.0 mm
10:00 PM 49.4°F9.7°C 42.8°F6.0°C 78% 1.2 mph NE1.9 kmh NE 2.3 mph3.7 kmh 29.52 in999.7 mb - 0.00 in0.0 mm 0.08 in2.0 mm
10:05 PM 49.3°F9.6°C 42.8°F6.0°C 78% 1.2 mph NE1.9 kmh NE 2.3 mph3.7 kmh 29.51 in999.3 mb - 0.00 in0.0 mm 0.08 in2.0 mm
10:10 PM 49.2°F9.6°C 42.6°F5.9°C 78% 2.3 mph NE3.7 kmh NE 2.3 mph3.7 kmh 29.51 in999.3 mb - 0.00 in0.0 mm 0.08 in2.0 mm
10:15 PM 48.9°F9.4°C 42.4°F5.8°C 78% 1.2 mph NE1.9 kmh NE 2.3 mph3.7 kmh 29.51 in999.3 mb - 0.00 in0.0 mm 0.08 in2.0 mm
10:20 PM 48.7°F9.3°C 42.2°F5.7°C 78% 1.2 mph NE1.9 kmh NE 2.3 mph3.7 kmh 29.51 in999.3 mb - 0.00 in0.0 mm 0.08 in2.0 mm
10:25 PM 48.5°F9.2°C 42.0°F5.6°C 78% Calm Calm -- 29.52 in999.7 mb - 0.00 in0.0 mm 0.08 in2.0 mm
10:30 PM 48.2°F9.0°C 41.7°F5.4°C 78% 2.3 mph NE3.7 kmh NE 3.5 mph5.6 kmh 29.52 in999.7 mb - 0.00 in0.0 mm 0.08 in2.0 mm
10:35 PM 47.9°F8.8°C 41.4°F5.2°C 78% 2.3 mph NE3.7 kmh NE 3.5 mph5.6 kmh 29.51 in999.3 mb - 0.00 in0.0 mm 0.08 in2.0 mm
10:40 PM 47.7°F8.7°C 41.2°F5.1°C 78% 2.3 mph NE3.7 kmh NE 2.3 mph3.7 kmh 29.51 in999.3 mb - 0.00 in0.0 mm 0.08 in2.0 mm
10:45 PM 47.6°F8.7°C 41.0°F5.0°C 78% 2.3 mph NE3.7 kmh NE 3.5 mph5.6 kmh 29.51 in999.3 mb - 0.00 in0.0 mm 0.08 in2.0 mm
10:50 PM 47.4°F8.6°C 40.8°F4.9°C 78% 2.3 mph NE3.7 kmh NE 3.5 mph5.6 kmh 29.51 in999.3 mb - 0.00 in0.0 mm 0.08 in2.0 mm
10:55 PM 47.1°F8.4°C 40.6°F4.8°C 78% 1.2 mph NE1.9 kmh NE 3.5 mph5.6 kmh 29.50 in999.0 mb - 0.00 in0.0 mm 0.08 in2.0 mm
11:00 PM 47.0°F8.3°C 40.5°F4.7°C 78% 2.3 mph NE3.7 kmh NE 3.5 mph5.6 kmh 29.51 in999.3 mb - 0.00 in0.0 mm 0.12 in3.0 mm
11:05 PM 46.8°F8.2°C 40.3°F4.6°C 78% 1.2 mph NE1.9 kmh NE 2.3 mph3.7 kmh 29.51 in999.3 mb - 0.00 in0.0 mm 0.12 in3.0 mm
11:10 PM 46.6°F8.1°C 40.1°F4.5°C 78% 2.3 mph NE3.7 kmh NE 3.5 mph5.6 kmh 29.51 in999.3 mb - 0.00 in0.0 mm 0.12 in3.0 mm
11:15 PM 46.4°F8.0°C 39.9°F4.4°C 78% Calm Calm -- 29.51 in999.3 mb - 0.00 in0.0 mm 0.12 in3.0 mm
11:20 PM 46.2°F7.9°C 39.7°F4.3°C 78% Calm Calm -- 29.51 in999.3 mb - 0.00 in0.0 mm 0.12 in3.0 mm
11:25 PM 46.0°F7.8°C 39.5°F4.2°C 78% 1.2 mph NE1.9 kmh NE 3.5 mph5.6 kmh 29.51 in999.3 mb - 0.00 in0.0 mm 0.12 in3.0 mm
11:30 PM 45.8°F7.7°C 39.4°F4.1°C 78% 2.3 mph NE3.7 kmh NE 3.5 mph5.6 kmh 29.51 in999.3 mb - 0.00 in0.0 mm 0.12 in3.0 mm
11:35 PM 45.8°F7.7°C 39.7°F4.3°C 79% 1.2 mph NE1.9 kmh NE 2.3 mph3.7 kmh 29.51 in999.3 mb - 0.00 in0.0 mm 0.12 in3.0 mm
11:40 PM 45.8°F7.7°C 39.7°F4.3°C 79% 2.3 mph NE3.7 kmh NE 2.3 mph3.7 kmh 29.51 in999.3 mb - 0.00 in0.0 mm 0.12 in3.0 mm
11:45 PM 45.8°F7.7°C 39.7°F4.3°C 79% 1.2 mph NE1.9 kmh NE 2.3 mph3.7 kmh 29.51 in999.3 mb - 0.00 in0.0 mm 0.12 in3.0 mm
11:50 PM 45.6°F7.6°C 39.5°F4.2°C 79% Calm Calm -- 29.51 in999.3 mb - 0.00 in0.0 mm 0.12 in3.0 mm
11:55 PM 45.4°F7.4°C 39.3°F4.1°C 79% 1.2 mph NE1.9 kmh NE 2.3 mph3.7 kmh 29.51 in999.3 mb - 0.00 in0.0 mm 0.12 in3.0 mm